Terminal Aerodrome Forecast
Issued by NWS North Platte, NE

Home | Current Version | Previous Version | Graphics & Text | Print | Product List | Glossary On
Versions: 1 2 3 4 5 6 7 8 9 10 11 12 13 14 15 16 17 18 19 20 21
437
FTUS43 KLBF 281308 AAB
TAFVTN
TAF AMD
KVTN 281308Z 2813/2912 33014KT P6SM OVC003
      TEMPO 2813/2816 2SM BR OVC003
     FM281600 32010KT P6SM OVC007
     FM281800 34009KT P6SM OVC015
     FM282000 36009KT P6SM OVC020
     FM290300 02005KT P6SM OVC015=

USA.gov is the U.S. government's official web portal to all federal, state and local government web resources and services.